ADDS METAR Data INFO
IDs: Format: Raw Decoded Include TAF

Data at: 2221 UTC 24 Jun 2018

KPNS 242153Z 24009G17KT 10SM FEW047 34/23 A2998 RMK AO2 LTG DSNT N AND NW SLP152 T03390228
KPNS 242053Z 18012KT 10SM SCT045 34/24 A3000 RMK AO2 LTG DSNT N SLP159 T03390239 56013
KPNS 241953Z 25009KT 10SM SCT044 33/22 A3000 RMK AO2 LTG DSNT E SLP161 T03330222
KPNS 241853Z 21013KT 10SM BKN044 BKN060 34/23 A3002 RMK AO2 LTG DSNT NE AND E SLP165 T03390233
KPNS 241753Z 26010KT 10SM FEW039 SCT055 33/23 A3004 RMK AO2 LTG DSNT E SLP172 60001 T03330233 10339 20278 58002
KPNS 241653Z 22009KT 10SM FEW028 SCT038 BKN046 32/24 A3005 RMK AO2 RAB08E33 SLP175 P0000 T03170244
KPNS 241639Z 19004KT 10SM FEW029 SCT038 31/25 A3004 RMK AO2 RAB08E33 P0000 T03110250
KPNS 241628Z VRB03KT 10SM -RA BKN029 BKN040 31/26 A3004 RMK AO2 RAB08 P0000 T03060256
KPNS 241553Z 23007KT 10SM SCT032 SCT065 BKN075 32/25 A3004 RMK AO2 RAB17E47 SLP174 P0001 T03170250
KPNS 241453Z 30006KT 10SM BKN022 31/24 A3004 RMK AO2 SLP173 T03110244 51007
KPNS 241427Z VRB04KT 10SM BKN022 31/24 A3004 RMK AO2 T03110239
KPNS 241353Z 25007KT 10SM SCT022 30/24 A3004 RMK AO2 SLP173 T03000239
KPNS 241253Z 26007KT 10SM CLR 29/24 A3003 RMK AO2 SLP170 T02940244
KPNS 241153Z 23004KT 10SM CLR 28/24 A3002 RMK AO2 SLP166 T02780244 10283 20267 51017
KPNS 241053Z 26005KT 10SM CLR 27/24 A3001 RMK AO2 SLP162 T02720239
KPNS 240953Z 26004KT 10SM CLR 27/24 A2999 RMK AO2 SLP155 T02670239
KPNS 240853Z 24005KT 10SM CLR 27/24 A2997 RMK AO2 SLP150 T02720239 55003
KPNS 240753Z 22006KT 10SM CLR 28/24 A2996 RMK AO2 SLP145 T02780239
KPNS 240653Z 21006KT 10SM FEW023 FEW045 28/24 A2997 RMK AO2 SLP148 T02780244
KPNS 240553Z 21008KT 10SM CLR 28/24 A2998 RMK AO2 SLP152 T02780244 10300 20278 403390267 50004
KPNS 240453Z 20007KT 10SM CLR 28/24 A2999 RMK AO2 SLP156 T02780244
KPNS 240353Z 21006KT 10SM CLR 28/24 A2998 RMK AO2 SLP152 T02780244
KPNS 240253Z 21007KT 10SM CLR 28/24 A2997 RMK AO2 SLP149 T02830239 53017
KPNS 240153Z 21007KT 10SM CLR 28/24 A2995 RMK AO2 SLP141 T02830239
KPNS 240053Z 23011KT 10SM CLR 29/24 A2994 RMK AO2 SLP139 T02890239
KPNS 232353Z 21012KT 10SM CLR 30/23 A2992 RMK AO2 SLP131 T03000233 10339 20300 56007
KPNS 232253Z 20010KT 10SM CLR 32/24 A2992 RMK AO2 SLP134 T03170239
KPNS 232153Z 21010G16KT 10SM FEW042 32/23 A2992 RMK AO2 SLP131 T03220233
KPNS 232053Z 21009KT 10SM CLR 34/23 A2994 RMK AO2 SLP138 T03390228 56013
KPNS 231953Z 26012G20KT 10SM FEW041 33/22 A2995 RMK AO2 SLP143 T03330217
KPNS 231853Z 25011G19KT 10SM FEW037 33/23 A2996 RMK AO2 SLP145 T03330228
KPNS 231753Z 25013KT 10SM SCT025 BKN033 33/22 A2998 RMK AO2 SLP151 T03330222 10333 20278 58004
KPNS 231653Z 25011KT 10SM FEW039 33/22 A2999 RMK AO2 SLP156 T03330222
KPNS 231553Z 28013KT 10SM SCT037 32/23 A3000 RMK AO2 SLP160 T03220228
KPNS 231453Z 26010G19KT 10SM SCT029 BKN036 32/23 A2999 RMK AO2 SLP156 T03170228 53013
KPNS 231436Z 27009KT 10SM BKN029 BKN033 31/23 A2998 RMK AO2 T03060228
KPNS 231353Z 26008KT 10SM SCT025 BKN032 30/23 A2998 RMK AO2 SLP151 T03000233
KPNS 231253Z 24009KT 10SM CLR 29/23 A2996 RMK AO2 SLP146 T02890233
KPNS 231153Z 25009KT 10SM CLR 28/23 A2995 RMK AO2 SLP143 T02780228 10278 20267 53012
KPNS 231053Z 24007KT 10SM CLR 27/22 A2994 RMK AO2 SLP138 T02720222